Time;durP1;ratioP1;P1;durP2;ratioP2;P2;SDS_P1;SDS_P2;PMS_P1;PMS_P2;Temp;Humidity;BMP_temperature;BMP_pressure;BME280_temperature;BME280_humidity;BME280_pressure;Samples;Min_cycle;Max_cycle;Signal;HPM_P1;HPM_P2
2022/03/04 00:00:03;;;;;;;339.08;93.50;;;;;;;5.46;56.66;99450.50;342592;28;1372;-68
2022/03/04 00:00:14;;;;;;;339.45;91.70;;;;;;;5.46;56.72;99450.50;342693;28;976;-68
2022/03/04 00:00:24;;;;;;;340.50;90.43;;;;;;;5.46;56.90;99453.09;342631;28;884;-68
2022/03/04 00:00:35;;;;;;;342.40;90.68;;;;;;;5.45;57.18;99448.78;341064;29;2454;-67
2022/03/04 00:00:45;;;;;;;341.17;91.43;;;;;;;5.47;57.21;99453.94;343864;28;1391;-67
2022/03/04 00:00:56;;;;;;;339.38;92.43;;;;;;;5.46;56.69;99450.50;342485;28;818;-67
2022/03/04 00:01:06;;;;;;;338.10;92.73;;;;;;;5.46;57.31;99455.69;343970;28;1343;-67
2022/03/04 00:01:17;;;;;;;338.65;92.45;;;;;;;5.47;57.49;99449.59;341337;29;877;-67
2022/03/04 00:01:27;;;;;;;341.07;92.40;;;;;;;5.49;57.29;99446.97;341215;29;897;-67
2022/03/04 00:01:38;;;;;;;340.23;91.20;;;;;;;5.48;57.28;99448.72;343974;28;893;-67
2022/03/04 00:01:48;;;;;;;340.30;92.33;;;;;;;5.49;57.37;99454.75;344062;28;1005;-67
2022/03/04 00:01:59;;;;;;;337.63;92.95;;;;;;;5.48;57.48;99448.72;341350;28;1636;-67
2022/03/04 00:02:10;;;;;;;338.67;93.97;;;;;;;5.50;57.30;99457.31;340461;28;1799;-67
2022/03/04 00:02:20;;;;;;;337.85;93.78;;;;;;;5.50;57.53;99449.53;342543;28;1136;-67
2022/03/04 00:02:31;;;;;;;338.63;92.97;;;;;;;5.51;57.65;99453.84;345245;28;1168;-67
2022/03/04 00:02:41;;;;;;;337.42;92.68;;;;;;;5.51;57.39;99459.03;343988;28;2580;-67
2022/03/04 00:02:52;;;;;;;338.57;92.93;;;;;;;5.52;57.46;99460.75;342586;28;1205;-67
2022/03/04 00:03:03;;;;;;;338.25;93.78;;;;;;;5.52;57.53;99455.56;341720;28;1068;-67
2022/03/04 00:03:14;;;;;;;339.70;93.80;;;;;;;5.50;57.61;99446.94;342696;28;965;-67
2022/03/04 00:03:24;;;;;;;337.25;93.40;;;;;;;5.50;57.78;99453.88;344684;28;951;-67
2022/03/04 00:03:35;;;;;;;336.42;93.45;;;;;;;5.49;57.62;99449.56;342431;28;1208;-67
2022/03/04 00:03:45;;;;;;;335.13;93.00;;;;;;;5.48;58.16;99448.72;344026;28;987;-67
2022/03/04 00:03:56;;;;;;;337.13;92.53;;;;;;;5.45;58.10;99451.38;343961;28;1579;-67
2022/03/04 00:04:09;;;;;;;338.13;93.03;;;;;;;5.46;58.14;99452.25;342098;28;1191;-67
2022/03/04 00:04:20;;;;;;;337.60;92.13;;;;;;;5.45;58.23;99455.72;341109;28;1662;-67
2022/03/04 00:04:34;;;;;;;335.52;91.05;;;;;;;5.45;58.08;99448.78;341229;28;1253;-67
2022/03/04 00:04:44;;;;;;;335.00;92.25;;;;;;;5.46;58.30;99450.50;341292;29;974;-67
2022/03/04 00:04:54;;;;;;;336.02;92.18;;;;;;;5.46;58.21;99450.50;342587;28;1354;-67
2022/03/04 00:05:05;;;;;;;334.10;92.40;;;;;;;5.46;58.20;99450.50;342628;28;943;-67
2022/03/04 00:05:16;;;;;;;335.35;92.95;;;;;;;5.48;58.16;99460.84;342599;28;1490;-67
2022/03/04 00:05:26;;;;;;;337.27;94.82;;;;;;;5.48;58.24;99447.88;341174;28;1853;-67
2022/03/04 00:05:38;;;;;;;337.10;93.53;;;;;;;5.47;58.18;99440.97;343702;28;1298;-67
2022/03/04 00:05:48;;;;;;;332.77;91.20;;;;;;;5.48;58.38;99453.06;345281;28;1301;-67
2022/03/04 00:05:59;;;;;;;334.35;90.63;;;;;;;5.48;58.23;99456.50;342616;28;1221;-67
2022/03/04 00:06:09;;;;;;;336.70;90.90;;;;;;;5.47;58.50;99447.00;345201;28;1551;-67
2022/03/04 00:06:20;;;;;;;338.88;91.03;;;;;;;5.47;58.60;99447.00;345308;28;951;-67
2022/03/04 00:06:30;;;;;;;336.77;91.23;;;;;;;5.47;58.95;99452.22;345115;28;960;-67
2022/03/04 00:06:40;;;;;;;336.13;91.03;;;;;;;5.45;59.00;99448.78;345192;28;1903;-67
2022/03/04 00:06:51;;;;;;;335.57;92.07;;;;;;;5.44;58.82;99447.09;344956;28;1791;-67
2022/03/04 00:07:01;;;;;;;334.77;91.80;;;;;;;5.44;59.05;99449.69;345330;28;1911;-67
2022/03/04 00:07:12;;;;;;;335.98;93.35;;;;;;;5.45;59.12;99453.97;345218;28;1591;-67
2022/03/04 00:07:22;;;;;;;336.97;92.37;;;;;;;5.44;58.86;99451.41;345280;28;952;-67
2022/03/04 00:07:32;;;;;;;340.58;91.82;;;;;;;5.43;58.85;99449.72;342556;28;2053;-67
2022/03/04 00:07:43;;;;;;;341.87;92.33;;;;;;;5.43;59.17;99449.72;342523;28;1300;-67
2022/03/04 00:07:53;;;;;;;340.38;93.78;;;;;;;5.43;59.36;99453.16;341293;29;1124;-67
2022/03/04 00:08:04;;;;;;;338.33;95.13;;;;;;;5.42;59.63;99448.00;342602;28;1500;-67
2022/03/04 00:08:14;;;;;;;333.33;93.10;;;;;;;5.41;59.90;99452.34;342698;28;1169;-67
2022/03/04 00:08:25;;;;;;;333.70;92.13;;;;;;;5.43;59.48;99453.16;342681;28;815;-67
2022/03/04 00:08:35;;;;;;;332.27;90.18;;;;;;;5.43;59.85;99447.97;342233;28;1275;-67
2022/03/04 00:08:45;;;;;;;334.93;91.63;;;;;;;5.43;59.89;99453.16;342636;28;1598;-67
2022/03/04 00:08:56;;;;;;;338.65;92.28;;;;;;;5.42;59.66;99443.66;345148;28;1707;-67
2022/03/04 00:09:06;;;;;;;339.67;91.87;;;;;;;5.43;59.70;99447.97;345280;28;1180;-67
2022/03/04 00:09:17;;;;;;;338.77;91.50;;;;;;;5.43;59.74;99445.38;341152;28;1211;-67
2022/03/04 00:09:27;;;;;;;335.40;90.57;;;;;;;5.43;59.88;99445.38;341209;29;1083;-67
2022/03/04 00:09:37;;;;;;;332.40;90.53;;;;;;;5.41;59.60;99444.56;342577;28;1954;-67
2022/03/04 00:09:48;;;;;;;331.63;90.10;;;;;;;5.42;59.42;99448.84;343935;28;2280;-67
2022/03/04 00:09:58;;;;;;;335.13;89.97;;;;;;;5.42;59.61;99448.00;344023;28;946;-67
2022/03/04 00:10:08;;;;;;;341.08;92.03;;;;;;;5.41;59.42;99441.97;341235;28;1365;-67
2022/03/04 00:10:19;;;;;;;341.17;92.17;;;;;;;5.41;59.63;99447.16;340104;29;854;-67
2022/03/04 00:10:30;;;;;;;336.73;91.97;;;;;;;5.40;59.25;99445.44;340591;28;1956;-67
2022/03/04 00:10:41;;;;;;;333.92;90.55;;;;;;;5.41;59.41;99446.28;343619;28;1038;-67
2022/03/04 00:10:51;;;;;;;334.65;91.63;;;;;;;5.41;59.31;99447.16;342707;28;953;-67
2022/03/04 00:11:02;;;;;;;333.87;91.53;;;;;;;5.40;59.28;99445.44;341210;28;1200;-67
2022/03/04 00:11:13;;;;;;;333.48;92.03;;;;;;;5.42;59.44;99448.00;343905;28;1271;-67
2022/03/04 00:11:23;;;;;;;335.27;92.13;;;;;;;5.42;59.47;99442.81;343934;28;1184;-67
2022/03/04 00:11:34;;;;;;;336.55;93.45;;;;;;;5.41;59.89;99446.28;343235;28;1936;-67
2022/03/04 00:11:44;;;;;;;338.80;93.93;;;;;;;5.41;59.92;99443.69;344588;28;1708;-68
2022/03/04 00:11:54;;;;;;;339.58;94.65;;;;;;;5.40;60.55;99445.44;343097;28;1090;-68
2022/03/04 00:12:07;;;;;;;338.37;94.13;;;;;;;5.38;60.38;99447.22;339918;29;1186;-69
2022/03/04 00:12:17;;;;;;;333.92;92.10;;;;;;;5.40;60.00;99448.03;343412;28;1664;-68
2022/03/04 00:12:28;;;;;;;335.08;91.18;;;;;;;5.38;60.20;99442.03;343913;28;1337;-69
2022/03/04 00:12:39;;;;;;;335.88;91.82;;;;;;;5.40;60.28;99445.44;342526;28;998;-69
2022/03/04 00:12:49;;;;;;;336.35;93.60;;;;;;;5.38;59.98;99444.63;342710;28;966;-69
2022/03/04 00:13:00;;;;;;;334.33;94.17;;;;;;;5.39;60.01;99448.94;342729;28;794;-69
2022/03/04 00:13:10;;;;;;;332.88;92.95;;;;;;;5.39;59.88;99441.16;341241;29;1334;-69
2022/03/04 00:13:20;;;;;;;331.43;90.83;;;;;;;5.39;60.09;99441.16;342674;28;1357;-69
2022/03/04 00:13:31;;;;;;;332.13;90.82;;;;;;;5.38;59.76;99436.84;343958;28;813;-69
2022/03/04 00:13:42;;;;;;;334.92;92.85;;;;;;;5.39;60.12;99437.69;342611;28;1313;-68
2022/03/04 00:13:52;;;;;;;335.50;92.87;;;;;;;5.38;60.10;99442.03;345490;28;1943;-69
2022/03/04 00:14:02;;;;;;;337.83;93.03;;;;;;;5.38;60.09;99438.59;346725;28;930;-69
2022/03/04 00:14:13;;;;;;;338.33;92.72;;;;;;;5.37;60.44;99439.47;342422;28;1487;-69
2022/03/04 00:14:26;;;;;;;341.80;95.30;;;;;;;5.38;60.28;99444.63;339976;29;802;-69
2022/03/04 00:14:37;;;;;;;336.77;93.57;;;;;;;5.37;60.14;99444.66;340052;29;926;-69
2022/03/04 00:14:47;;;;;;;334.90;91.20;;;;;;;5.38;60.25;99449.81;341289;29;845;-69
2022/03/04 00:14:57;;;;;;;329.45;89.03;;;;;;;5.35;60.39;99442.09;343912;28;1216;-69
2022/03/04 00:15:08;;;;;;;331.33;91.57;;;;;;;5.34;60.34;99450.78;345328;28;971;-69
2022/03/04 00:15:19;;;;;;;332.92;92.88;;;;;;;5.32;60.41;99448.22;342472;28;1412;-68
2022/03/04 00:15:29;;;;;;;334.13;93.20;;;;;;;5.32;60.53;99442.16;343610;28;1877;-68
2022/03/04 00:15:40;;;;;;;335.80;93.20;;;;;;;5.33;60.28;99446.47;342162;28;1402;-68
2022/03/04 00:15:50;;;;;;;332.83;90.85;;;;;;;5.31;60.37;99440.47;342503;28;991;-68
2022/03/04 00:16:00;;;;;;;334.30;91.40;;;;;;;5.31;60.24;99445.66;341479;28;908;-68
2022/03/04 00:16:11;;;;;;;334.42;91.10;;;;;;;5.29;60.22;99447.41;343698;28;1333;-69
2022/03/04 00:16:21;;;;;;;337.70;93.87;;;;;;;5.30;60.43;99443.94;342200;28;2130;-69
2022/03/04 00:16:32;;;;;;;337.15;93.32;;;;;;;5.30;59.92;99444.78;341051;29;1602;-69
2022/03/04 00:16:42;;;;;;;336.73;93.07;;;;;;;5.30;59.86;99449.97;339749;29;2064;-69
2022/03/04 00:16:53;;;;;;;335.08;92.25;;;;;;;5.29;59.66;99447.41;342544;28;1394;-69
2022/03/04 00:17:03;;;;;;;336.90;94.03;;;;;;;5.30;59.52;99442.19;342518;28;1592;-69
2022/03/04 00:17:14;;;;;;;335.75;93.95;;;;;;;5.30;59.63;99449.97;341326;29;1735;-69
2022/03/04 00:17:24;;;;;;;334.83;92.57;;;;;;;5.30;59.55;99441.34;339936;29;1181;-69
2022/03/04 00:17:34;;;;;;;333.23;90.20;;;;;;;5.30;59.77;99443.94;341200;29;1476;-69
2022/03/04 00:17:45;;;;;;;336.67;91.07;;;;;;;5.32;59.54;99447.34;342577;28;936;-69
2022/03/04 00:17:55;;;;;;;337.80;90.38;;;;;;;5.29;59.51;99443.09;341220;29;1309;-68
2022/03/04 00:18:05;;;;;;;338.43;91.57;;;;;;;5.29;59.54;99442.22;342681;28;842;-68
2022/03/04 00:18:16;;;;;;;335.33;91.27;;;;;;;5.28;59.62;99440.53;341426;29;944;-69
2022/03/04 00:18:26;;;;;;;334.75;91.82;;;;;;;5.27;59.21;99441.41;341004;28;2353;-68
2022/03/04 00:18:37;;;;;;;334.07;91.33;;;;;;;5.26;59.22;99442.28;343946;28;1169;-69
2022/03/04 00:19:06;;;;;;;334.13;90.57;;;;;;;5.27;59.11;99441.41;345369;28;1460;-68
2022/03/04 00:19:17;;;;;;;335.88;91.65;;;;;;;5.27;59.14;99449.19;343930;28;1254;-70
2022/03/04 00:19:27;;;;;;;334.85;92.18;;;;;;;5.27;59.03;99438.81;341094;28;1204;-70
2022/03/04 00:19:38;;;;;;;335.95;93.20;;;;;;;5.27;59.15;99439.66;341343;29;924;-69
2022/03/04 00:19:48;;;;;;;335.37;92.63;;;;;;;5.27;58.92;99438.81;342551;28;1343;-69
2022/03/04 00:19:59;;;;;;;334.42;91.43;;;;;;;5.27;58.90;99444.00;343284;28;2047;-68
2022/03/04 00:20:09;;;;;;;334.13;91.20;;;;;;;5.27;58.90;99444.00;342740;28;976;-69
2022/03/04 00:20:20;;;;;;;332.75;91.35;;;;;;;5.26;59.12;99440.56;342603;28;839;-69
2022/03/04 00:20:31;;;;;;;332.17;91.43;;;;;;;5.26;59.03;99447.47;342954;28;2512;-69
2022/03/04 00:20:41;;;;;;;333.57;92.40;;;;;;;5.25;59.15;99446.63;342254;28;1579;-68
2022/03/04 00:20:52;;;;;;;335.23;92.03;;;;;;;5.24;59.08;99444.94;346700;28;1323;-68
2022/03/04 00:21:02;;;;;;;334.95;92.20;;;;;;;5.23;59.03;99444.97;343916;28;1326;-68
2022/03/04 00:21:13;;;;;;;338.63;91.93;;;;;;;5.20;59.28;99437.28;343228;28;1685;-69
2022/03/04 00:21:23;;;;;;;339.90;92.90;;;;;;;5.19;59.41;99443.34;342450;28;1724;-68
2022/03/04 00:21:41;;;;;;;339.23;93.40;;;;;;;5.17;59.20;99445.97;343690;28;1169;-68
2022/03/04 00:21:51;;;;;;;334.33;93.40;;;;;;;5.17;59.49;99437.34;344345;28;1911;-68
2022/03/04 00:22:02;;;;;;;334.87;93.13;;;;;;;5.15;59.59;99439.13;345346;28;1306;-68
2022/03/04 00:22:14;;;;;;;333.80;93.53;;;;;;;5.16;59.78;99444.28;345366;28;856;-68
2022/03/04 00:22:24;;;;;;;334.15;92.97;;;;;;;5.17;59.47;99437.34;343931;28;2488;-68
2022/03/04 00:22:34;;;;;;;334.27;92.30;;;;;;;5.16;59.93;99440.81;341204;29;1276;-68
2022/03/04 00:22:45;;;;;;;334.97;91.47;;;;;;;5.17;59.59;99442.53;343905;28;1288;-68
2022/03/04 00:22:55;;;;;;;333.63;89.50;;;;;;;5.15;59.80;99437.38;342651;28;959;-68
2022/03/04 00:23:06;;;;;;;332.73;89.47;;;;;;;5.14;59.32;99448.63;341309;29;1194;-68
2022/03/04 00:23:16;;;;;;;331.83;89.30;;;;;;;5.13;59.78;99440.88;343353;28;1521;-70
2022/03/04 00:23:26;;;;;;;332.80;91.82;;;;;;;5.12;59.57;99437.44;338509;29;1051;-70
2022/03/04 00:23:37;;;;;;;333.97;91.83;;;;;;;5.12;59.89;99442.63;339974;29;998;-70
2022/03/04 00:23:47;;;;;;;334.13;91.45;;;;;;;5.12;59.71;99441.78;342639;28;905;-70
2022/03/04 00:23:57;;;;;;;333.13;91.23;;;;;;;5.12;59.75;99445.22;343088;28;1607;-70
2022/03/04 00:24:09;;;;;;;331.45;91.18;;;;;;;5.10;59.85;99440.94;342663;28;992;-70
2022/03/04 00:24:21;;;;;;;331.23;91.35;;;;;;;5.09;60.29;99449.63;342510;28;1290;-69
2022/03/04 00:24:31;;;;;;;331.77;90.03;;;;;;;5.07;59.94;99441.88;341322;29;921;-69
2022/03/04 00:24:42;;;;;;;332.30;90.13;;;;;;;5.08;59.85;99447.91;343868;28;1464;-69
2022/03/04 00:24:52;;;;;;;331.30;89.87;;;;;;;5.08;60.26;99446.16;342681;28;1121;-69
2022/03/04 00:25:04;;;;;;;329.85;89.50;;;;;;;5.08;60.02;99440.13;344022;28;1212;-69
2022/03/04 00:25:14;;;;;;;331.30;90.07;;;;;;;5.06;60.02;99447.09;345337;28;1613;-69
2022/03/04 00:25:25;;;;;;;333.90;90.73;;;;;;;5.05;60.14;99442.78;341246;28;1244;-69
2022/03/04 00:25:35;;;;;;;335.08;91.90;;;;;;;5.04;60.02;99441.06;342177;28;1783;-69
2022/03/04 00:25:46;;;;;;;334.03;91.80;;;;;;;5.04;60.01;99446.25;345880;28;1315;-68
2022/03/04 00:25:56;;;;;;;330.60;91.32;;;;;;;5.02;60.15;99438.50;344006;28;960;-68
2022/03/04 00:26:07;;;;;;;332.20;91.27;;;;;;;5.03;60.16;99441.97;343261;28;1859;-68
2022/03/04 00:26:17;;;;;;;332.00;90.10;;;;;;;5.01;60.55;99445.44;342780;28;2397;-69
2022/03/04 00:26:27;;;;;;;333.00;90.10;;;;;;;5.03;60.31;99445.41;341396;29;893;-68
2022/03/04 00:26:38;;;;;;;330.48;89.60;;;;;;;5.04;59.99;99451.44;343722;28;1000;-69
2022/03/04 00:26:49;;;;;;;330.60;90.47;;;;;;;5.04;60.08;99448.84;343803;28;1924;-69
2022/03/04 00:26:59;;;;;;;331.17;89.87;;;;;;;5.02;60.51;99446.28;343945;28;1340;-70
2022/03/04 00:27:10;;;;;;;333.00;90.82;;;;;;;5.03;60.60;99439.38;340993;29;1588;-69
2022/03/04 00:27:20;;;;;;;332.53;90.27;;;;;;;5.03;60.40;99439.38;343826;28;1184;-69
2022/03/04 00:27:31;;;;;;;333.17;90.28;;;;;;;5.04;60.48;99446.25;343782;28;1287;-69
2022/03/04 00:27:41;;;;;;;333.10;90.13;;;;;;;5.03;60.20;99442.81;342577;28;1292;-68
2022/03/04 00:27:51;;;;;;;333.02;90.45;;;;;;;5.04;60.59;99444.53;342649;28;958;-68
2022/03/04 00:28:02;;;;;;;332.30;90.07;;;;;;;5.04;60.05;99452.31;342591;28;1609;-68
2022/03/04 00:28:12;;;;;;;330.00;88.85;;;;;;;5.05;60.23;99442.78;342639;28;1395;-68
2022/03/04 00:28:23;;;;;;;329.03;88.03;;;;;;;5.06;60.16;99444.50;339939;29;927;-68
2022/03/04 00:28:34;;;;;;;329.90;87.53;;;;;;;5.07;60.42;99443.59;339951;29;1576;-68
2022/03/04 00:28:44;;;;;;;333.17;88.33;;;;;;;5.07;60.33;99446.19;341176;29;2487;-68
2022/03/04 00:28:54;;;;;;;335.93;89.77;;;;;;;5.06;60.53;99439.31;343808;28;1774;-69
2022/03/04 00:29:05;;;;;;;336.47;91.67;;;;;;;5.06;60.59;99439.31;344054;28;877;-68
2022/03/04 00:29:16;;;;;;;336.52;92.53;;;;;;;5.06;60.62;99444.50;342618;28;1081;-68
2022/03/04 00:29:26;;;;;;;333.48;91.57;;;;;;;5.06;60.36;99439.31;343858;28;1095;-68
2022/03/04 00:29:37;;;;;;;331.70;91.50;;;;;;;5.06;60.53;99442.75;342565;28;1481;-68
2022/03/04 00:29:47;;;;;;;328.83;89.50;;;;;;;5.05;60.53;99443.63;343884;28;1298;-68
2022/03/04 00:29:57;;;;;;;331.23;91.30;;;;;;;5.06;60.67;99441.91;343768;28;1224;-68
2022/03/04 00:30:08;;;;;;;332.85;92.45;;;;;;;5.07;60.68;99446.19;342590;28;813;-68
2022/03/04 00:30:19;;;;;;;333.98;94.00;;;;;;;5.08;60.49;99443.56;340432;28;2177;-68
2022/03/04 00:30:29;;;;;;;333.65;93.45;;;;;;;5.08;60.79;99438.38;343514;28;2226;-68
2022/03/04 00:30:40;;;;;;;333.10;92.97;;;;;;;5.06;60.57;99439.31;342517;28;944;-68
2022/03/04 00:30:50;;;;;;;333.33;91.93;;;;;;;5.05;60.73;99445.38;343129;28;1943;-69
2022/03/04 00:31:00;;;;;;;333.30;91.10;;;;;;;5.05;60.59;99442.78;342796;28;1579;-69
2022/03/04 00:31:11;;;;;;;333.77;90.43;;;;;;;5.04;60.72;99443.66;342648;28;1144;-69
2022/03/04 00:31:21;;;;;;;334.10;90.63;;;;;;;5.04;60.84;99435.88;341716;28;1322;-68
2022/03/04 00:31:32;;;;;;;333.63;90.73;;;;;;;5.05;60.89;99442.78;342412;28;1760;-68
2022/03/04 00:31:43;;;;;;;332.92;90.25;;;;;;;5.05;61.12;99446.22;343933;28;1227;-69
2022/03/04 00:31:53;;;;;;;332.60;90.40;;;;;;;5.05;61.00;99442.78;339942;29;1028;-69
2022/03/04 00:32:04;;;;;;;332.13;89.57;;;;;;;5.04;61.27;99436.75;339995;29;899;-69
2022/03/04 00:32:14;;;;;;;333.60;90.50;;;;;;;5.04;61.10;99435.88;342398;28;1720;-69
2022/03/04 00:32:24;;;;;;;333.93;89.73;;;;;;;5.01;61.21;99439.41;343966;28;1377;-69
2022/03/04 00:32:35;;;;;;;333.83;91.57;;;;;;;5.00;61.53;99437.69;342617;28;1023;-69
2022/03/04 00:32:46;;;;;;;335.33;92.50;;;;;;;4.99;61.15;99442.03;342646;28;913;-69
2022/03/04 00:32:56;;;;;;;335.30;91.13;;;;;;;4.98;61.24;99437.72;343505;28;1829;-69
2022/03/04 00:33:06;;;;;;;334.02;88.88;;;;;;;4.99;61.07;99439.44;340050;29;1011;-69
2022/03/04 00:33:17;;;;;;;330.80;86.50;;;;;;;5.00;61.23;99448.06;339999;29;944;-69
2022/03/04 00:33:27;;;;;;;331.77;88.40;;;;;;;4.98;61.08;99435.13;341263;29;881;-69
2022/03/04 00:33:38;;;;;;;333.03;90.77;;;;;;;4.99;61.13;99436.00;341305;28;1185;-68
2022/03/04 00:33:48;;;;;;;334.30;92.70;;;;;;;4.97;61.31;99443.78;343217;28;1709;-69
2022/03/04 00:33:59;;;;;;;333.00;92.30;;;;;;;4.97;61.28;99443.78;344018;28;953;-68
2022/03/04 00:34:10;;;;;;;333.00;90.70;;;;;;;4.95;61.37;99440.38;341324;29;806;-68
2022/03/04 00:34:20;;;;;;;334.25;91.18;;;;;;;4.97;61.31;99448.97;341233;29;1112;-68
2022/03/04 00:34:31;;;;;;;337.30;92.40;;;;;;;4.97;61.37;99443.78;341303;29;1023;-68
2022/03/04 00:34:42;;;;;;;338.08;92.55;;;;;;;4.95;61.51;99442.97;341225;29;872;-69
2022/03/04 00:34:52;;;;;;;338.48;92.38;;;;;;;4.93;61.70;99439.56;341334;29;928;-69
2022/03/04 00:35:04;;;;;;;336.30;93.35;;;;;;;4.90;61.51;99442.22;343938;28;1418;-69
2022/03/04 00:35:14;;;;;;;336.90;94.88;;;;;;;4.89;61.88;99443.09;342634;28;968;-69
2022/03/04 00:35:25;;;;;;;336.70;93.95;;;;;;;4.89;61.92;99443.09;343830;28;1566;-69
2022/03/04 00:35:35;;;;;;;335.57;92.67;;;;;;;4.90;61.96;99443.94;341706;28;1725;-69
2022/03/04 00:35:45;;;;;;;333.58;91.90;;;;;;;4.89;61.94;99443.09;343075;28;1672;-68
2022/03/04 00:35:56;;;;;;;333.13;91.73;;;;;;;4.88;62.18;99443.97;343891;28;1767;-68
2022/03/04 00:36:06;;;;;;;332.25;91.40;;;;;;;4.89;62.24;99437.91;342669;28;988;-68
2022/03/04 00:36:17;;;;;;;333.70;92.70;;;;;;;4.91;62.03;99443.91;343121;28;2133;-68
2022/03/04 00:36:27;;;;;;;336.27;93.43;;;;;;;4.89;61.91;99445.69;342675;28;1070;-68
2022/03/04 00:36:38;;;;;;;339.13;94.30;;;;;;;4.90;62.34;99447.41;342481;28;1471;-68
2022/03/04 00:36:49;;;;;;;337.90;94.30;;;;;;;4.89;62.25;99442.25;339902;28;1363;-68
2022/03/04 00:37:00;;;;;;;334.58;92.38;;;;;;;4.90;62.19;99442.22;341820;28;1423;-68
2022/03/04 00:37:10;;;;;;;332.02;91.13;;;;;;;4.92;62.14;99450.81;344026;28;819;-68
2022/03/04 00:37:20;;;;;;;332.53;90.70;;;;;;;4.94;62.09;99440.41;342507;28;2095;-68
2022/03/04 00:37:31;;;;;;;335.55;92.45;;;;;;;4.94;61.88;99446.44;342536;28;936;-68
2022/03/04 00:37:41;;;;;;;336.67;93.93;;;;;;;4.95;61.83;99442.97;341386;28;1399;-68
2022/03/04 00:37:51;;;;;;;336.58;93.20;;;;;;;4.94;61.70;99441.25;341303;28;858;-68
2022/03/04 00:38:02;;;;;;;333.47;91.97;;;;;;;4.95;61.94;99440.38;341344;29;874;-68
2022/03/04 00:38:12;;;;;;;331.80;89.90;;;;;;;4.95;61.56;99448.16;343936;28;1314;-68
2022/03/04 00:38:23;;;;;;;332.83;91.20;;;;;;;4.97;61.56;99446.38;341825;28;2071;-68
2022/03/04 00:38:33;;;;;;;334.23;91.77;;;;;;;4.97;61.32;99446.38;343433;28;2134;-68
2022/03/04 00:38:44;;;;;;;335.23;90.85;;;;;;;4.97;61.55;99441.19;342578;28;991;-68
2022/03/04 00:38:55;;;;;;;334.50;90.67;;;;;;;4.96;61.86;99447.28;342468;28;1520;-68
2022/03/04 00:39:08;;;;;;;333.35;89.70;;;;;;;4.96;61.92;99447.28;342627;28;878;-68
2022/03/04 00:39:18;;;;;;;332.58;89.53;;;;;;;4.95;61.90;99445.56;343968;28;984;-69
2022/03/04 00:39:28;;;;;;;333.70;91.03;;;;;;;4.95;61.85;99442.97;343772;28;1380;-69
2022/03/04 00:39:39;;;;;;;333.95;91.00;;;;;;;4.95;62.14;99442.13;342602;28;857;-69
2022/03/04 00:39:49;;;;;;;334.03;91.93;;;;;;;4.92;62.11;99443.03;339909;29;1317;-69
2022/03/04 00:40:00;;;;;;;331.70;91.40;;;;;;;4.92;62.26;99442.19;342614;28;907;-69
2022/03/04 00:40:11;;;;;;;332.07;91.87;;;;;;;4.91;62.04;99445.66;345337;28;829;-69
2022/03/04 00:40:21;;;;;;;334.05;92.32;;;;;;;4.90;62.19;99443.94;344961;28;2057;-68
2022/03/04 00:40:32;;;;;;;339.38;92.68;;;;;;;4.90;62.00;99443.94;343212;28;2089;-68
2022/03/04 00:40:42;;;;;;;339.50;92.17;;;;;;;4.90;61.98;99444.81;343230;28;1046;-68
2022/03/04 00:40:53;;;;;;;338.10;90.95;;;;;;;4.89;62.14;99443.09;341252;28;1456;-69
2022/03/04 00:41:03;;;;;;;333.30;89.80;;;;;;;4.87;61.94;99442.28;342367;28;1255;-68
2022/03/04 00:41:14;;;;;;;333.98;91.70;;;;;;;4.87;62.27;99442.28;345345;28;887;-68
2022/03/04 00:41:24;;;;;;;336.60;93.23;;;;;;;4.88;62.20;99441.38;345323;28;859;-68
2022/03/04 00:41:34;;;;;;;338.98;93.70;;;;;;;4.85;62.46;99441.44;344751;28;1129;-68
2022/03/04 00:41:45;;;;;;;338.77;92.20;;;;;;;4.86;61.92;99439.72;343923;28;942;-69
2022/03/04 00:41:55;;;;;;;336.65;89.97;;;;;;;4.84;62.19;99439.75;341205;29;1499;-69
2022/03/04 00:42:06;;;;;;;335.10;90.10;;;;;;;4.85;61.99;99444.03;342646;28;1023;-69
2022/03/04 00:42:16;;;;;;;334.58;90.72;;;;;;;4.85;62.40;99441.44;344524;28;1638;-69
2022/03/04 00:42:27;;;;;;;333.37;91.23;;;;;;;4.85;62.19;99438.84;346668;28;1062;-69
2022/03/04 00:42:38;;;;;;;333.92;91.90;;;;;;;4.85;62.20;99441.44;343811;28;1457;-69
2022/03/04 00:42:48;;;;;;;334.80;91.10;;;;;;;4.85;62.18;99444.03;343965;28;947;-69
2022/03/04 00:42:58;;;;;;;334.77;90.50;;;;;;;4.86;62.19;99442.31;341298;29;890;-69
2022/03/04 00:43:09;;;;;;;334.90;90.27;;;;;;;4.85;62.26;99441.44;343908;28;1172;-69
2022/03/04 00:43:20;;;;;;;334.58;91.63;;;;;;;4.86;62.26;99442.31;343923;28;1309;-69
2022/03/04 00:43:30;;;;;;;335.70;92.50;;;;;;;4.83;62.13;99445.81;343942;28;1230;-69
2022/03/04 00:43:43;;;;;;;336.20;91.97;;;;;;;4.82;62.49;99446.69;342590;28;957;-69
2022/03/04 00:43:53;;;;;;;334.88;90.72;;;;;;;4.83;62.32;99443.22;339969;29;1933;-69
2022/03/04 00:44:04;;;;;;;335.00;91.05;;;;;;;4.84;62.52;99447.53;341232;28;1333;-69
2022/03/04 00:44:14;;;;;;;335.85;91.78;;;;;;;4.82;62.26;99441.50;341144;29;1199;-69
2022/03/04 00:44:25;;;;;;;338.87;92.87;;;;;;;4.84;62.21;99442.34;343892;28;1214;-69
2022/03/04 00:44:35;;;;;;;338.88;92.03;;;;;;;4.82;62.39;99446.69;341296;29;935;-69
2022/03/04 00:44:45;;;;;;;339.13;92.50;;;;;;;4.82;62.59;99449.28;339988;29;892;-69
2022/03/04 00:44:56;;;;;;;338.58;92.18;;;;;;;4.82;62.20;99446.69;342697;28;794;-69
2022/03/04 00:45:07;;;;;;;339.37;93.33;;;;;;;4.83;62.26;99443.22;343879;28;1176;-69
2022/03/04 00:45:17;;;;;;;339.65;94.63;;;;;;;4.83;62.19;99448.41;343266;28;1788;-69
2022/03/04 00:45:27;;;;;;;339.97;94.93;;;;;;;4.85;62.09;99446.63;342126;28;1814;-69
2022/03/04 00:45:38;;;;;;;338.98;94.47;;;;;;;4.84;62.44;99450.13;341865;28;1511;-69
2022/03/04 00:45:48;;;;;;;338.37;93.13;;;;;;;4.87;62.21;99449.19;343846;28;861;-69
2022/03/04 00:45:59;;;;;;;335.95;92.95;;;;;;;4.86;62.19;99448.34;341097;28;1210;-69
2022/03/04 00:46:10;;;;;;;336.20;93.03;;;;;;;4.85;61.90;99446.63;341302;28;1480;-69
2022/03/04 00:46:21;;;;;;;336.35;94.50;;;;;;;4.85;62.08;99440.59;343919;28;961;-69
2022/03/04 00:46:31;;;;;;;337.77;94.45;;;;;;;4.86;62.05;99445.75;341285;29;869;-69
2022/03/04 00:46:42;;;;;;;338.63;94.10;;;;;;;4.86;62.18;99448.34;342547;28;1252;-69
2022/03/04 00:46:52;;;;;;;340.05;93.20;;;;;;;4.84;61.80;99447.53;342496;28;1930;-69
2022/03/04 00:47:04;;;;;;;338.23;91.77;;;;;;;4.84;61.89;99450.13;341211;28;2008;-69
2022/03/04 00:47:15;;;;;;;336.83;91.60;;;;;;;4.83;62.36;99448.41;345194;28;1530;-69
2022/03/04 00:47:25;;;;;;;337.08;91.32;;;;;;;4.83;62.02;99443.22;343813;28;1362;-69
2022/03/04 00:47:35;;;;;;;339.57;91.77;;;;;;;4.83;61.93;99448.41;342547;28;1192;-69
2022/03/04 00:47:46;;;;;;;340.50;91.65;;;;;;;4.81;62.28;99445.00;343807;28;1497;-69
2022/03/04 00:47:57;;;;;;;340.88;92.65;;;;;;;4.81;62.36;99454.50;346593;28;1261;-69
2022/03/04 00:48:07;;;;;;;341.83;93.20;;;;;;;4.79;62.35;99449.34;346628;28;871;-69
2022/03/04 00:48:17;;;;;;;341.58;92.50;;;;;;;4.80;62.40;99440.69;346704;28;885;-69
2022/03/04 00:48:28;;;;;;;341.50;90.97;;;;;;;4.78;62.49;99444.19;345226;28;1197;-69
2022/03/04 00:48:38;;;;;;;339.00;90.53;;;;;;;4.79;63.04;99446.75;342505;28;1236;-69
2022/03/04 00:48:49;;;;;;;339.23;90.68;;;;;;;4.79;62.33;99448.50;342033;28;2177;-69
2022/03/04 00:48:59;;;;;;;343.05;92.07;;;;;;;4.78;62.47;99447.66;341250;29;1254;-69
2022/03/04 00:49:10;;;;;;;344.77;92.10;;;;;;;4.78;62.45;99444.19;343918;28;1168;-68
2022/03/04 00:49:20;;;;;;;342.90;92.35;;;;;;;4.81;62.36;99450.19;345195;28;1339;-68
2022/03/04 00:49:30;;;;;;;339.37;91.83;;;;;;;4.80;62.05;99448.47;345164;28;817;-69
2022/03/04 00:49:41;;;;;;;340.40;92.75;;;;;;;4.81;62.29;99444.13;345352;28;835;-68
2022/03/04 00:49:51;;;;;;;342.60;93.73;;;;;;;4.78;62.41;99447.66;345317;28;921;-68
2022/03/04 00:50:02;;;;;;;340.77;94.07;;;;;;;4.77;62.62;99448.53;343399;28;2127;-68
2022/03/04 00:50:13;;;;;;;340.13;93.43;;;;;;;4.77;62.66;99448.53;342647;28;1476;-69
2022/03/04 00:50:23;;;;;;;340.75;92.90;;;;;;;4.77;62.66;99448.53;343650;28;1023;-69